createdAt,value
2023-04-13T00:01:12.689Z,157487.38
2023-04-13T00:03:40.160Z,157494.00
2023-04-13T00:06:11.328Z,157476.75
2023-04-13T00:08:38.846Z,157494.00
2023-04-13T00:11:07.679Z,157491.38
2023-04-13T00:13:41.734Z,157487.38
2023-04-13T00:16:10.097Z,157490.00
2023-04-13T00:18:37.314Z,157486.03
2023-04-13T00:21:05.015Z,157484.72
2023-04-13T00:23:32.317Z,157486.03
2023-04-13T00:26:01.770Z,157475.41
2023-04-13T00:28:30.162Z,157467.44
2023-04-13T00:30:59.732Z,157462.13
2023-04-13T00:33:26.952Z,157459.47
2023-04-13T00:35:54.324Z,157459.47
2023-04-13T00:38:24.234Z,157447.50
2023-04-13T00:40:54.642Z,157455.53
2023-04-13T00:43:22.096Z,157446.19
2023-04-13T00:45:51.185Z,157411.69
2023-04-13T00:48:18.744Z,157414.38
2023-04-13T00:50:47.759Z,157414.38
2023-04-13T00:53:16.029Z,157399.75
2023-04-13T00:55:44.596Z,157371.88
2023-04-13T00:58:13.405Z,157390.44
2023-04-13T01:00:43.415Z,157383.78
2023-04-13T01:03:11.629Z,157371.88
2023-04-13T01:05:51.945Z,157361.25
2023-04-13T01:08:29.404Z,157346.66
2023-04-13T01:10:59.108Z,157350.66
2023-04-13T01:13:42.863Z,157329.41
2023-04-13T01:16:20.077Z,157313.47
2023-04-13T01:18:52.411Z,157293.53
2023-04-13T01:21:24.292Z,157298.88
2023-04-13T01:24:29.408Z,157300.19
2023-04-13T01:27:11.776Z,157297.56
2023-04-13T01:29:39.493Z,157281.63
2023-04-13T01:32:08.754Z,157251.09
2023-04-13T01:34:38.404Z,157224.59
2023-04-13T01:37:08.804Z,157224.59
2023-04-13T01:39:39.981Z,157221.91
2023-04-13T01:42:26.129Z,157209.94
2023-04-13T01:44:53.405Z,157195.38
2023-04-13T01:47:22.765Z,157199.38
2023-04-13T01:50:26.938Z,157187.41
2023-04-13T01:53:08.254Z,157183.47
2023-04-13T01:55:42.121Z,157167.50
2023-04-13T01:58:13.230Z,157143.66
2023-04-13T02:00:41.759Z,157146.28
2023-04-13T02:03:13.349Z,157156.91
2023-04-13T02:05:40.780Z,157155.59
2023-04-13T02:08:08.898Z,157147.66
2023-04-13T02:10:42.463Z,157141.00
2023-04-13T02:13:10.475Z,157129.06
2023-04-13T02:15:38.897Z,157121.09
2023-04-13T02:18:07.821Z,157117.09
2023-04-13T02:20:42.908Z,157109.16
2023-04-13T02:23:12.081Z,157111.78
2023-04-13T02:25:39.259Z,157098.56
2023-04-13T02:28:07.390Z,157101.22
2023-04-13T02:30:35.123Z,157083.94
2023-04-13T02:33:02.531Z,157081.31
2023-04-13T02:35:30.675Z,157072.03
2023-04-13T02:37:58.285Z,157046.81
2023-04-13T02:40:25.536Z,157053.47
2023-04-13T02:42:53.234Z,157065.41
2023-04-13T02:45:21.367Z,157070.72
2023-04-13T02:47:49.913Z,157066.72
2023-04-13T02:50:17.324Z,157042.88
2023-04-13T02:52:55.018Z,157042.88
2023-04-13T02:55:22.220Z,157037.56
2023-04-13T02:57:58.032Z,157040.19
2023-04-13T03:00:25.860Z,157025.59
2023-04-13T03:03:00.349Z,157016.34
2023-04-13T03:05:33.004Z,156997.75
2023-04-13T03:08:01.296Z,156976.56
2023-04-13T03:10:31.250Z,156961.97
2023-04-13T03:13:00.608Z,156969.91
2023-04-13T03:15:27.956Z,156975.22
2023-04-13T03:17:59.070Z,156989.81
2023-04-13T03:20:29.222Z,156995.13
2023-04-13T03:23:02.024Z,157012.34
2023-04-13T03:25:34.087Z,157026.94
2023-04-13T03:28:03.652Z,157053.47
2023-04-13T03:30:36.463Z,157056.09
2023-04-13T03:33:04.301Z,157077.34
2023-04-13T03:35:34.951Z,157083.94
2023-04-13T03:38:04.996Z,157095.88
2023-04-13T03:40:36.870Z,157103.84
2023-04-13T03:43:04.383Z,157115.78
2023-04-13T03:45:35.153Z,157137.00
2023-04-13T03:48:08.446Z,157142.34
2023-04-13T03:50:36.036Z,157138.31
2023-04-13T03:53:05.669Z,157130.38
2023-04-13T03:55:33.246Z,157135.69
2023-04-13T03:58:05.988Z,157134.38
2023-04-13T04:00:33.798Z,157135.69
2023-04-13T04:03:23.096Z,157156.91
2023-04-13T04:05:57.246Z,157174.13
2023-04-13T04:08:27.869Z,157188.72
2023-04-13T04:10:58.519Z,157236.50
2023-04-13T04:13:27.323Z,157273.69
2023-04-13T04:15:58.220Z,157309.50
2023-04-13T04:18:27.712Z,157338.69
2023-04-13T04:20:55.103Z,157369.19
2023-04-13T04:23:28.159Z,157387.81
2023-04-13T04:26:02.938Z,157414.38
2023-04-13T04:28:40.925Z,157432.91
2023-04-13T04:31:12.464Z,157442.25
2023-04-13T04:33:44.471Z,157470.13
2023-04-13T04:36:14.466Z,157503.28
2023-04-13T04:38:58.062Z,157516.56
2023-04-13T04:41:26.630Z,157528.53
2023-04-13T04:43:57.728Z,157551.09
2023-04-13T04:46:29.840Z,157575.03
2023-04-13T04:49:01.826Z,157604.25
2023-04-13T04:51:30.285Z,157626.81
2023-04-13T04:54:01.759Z,157650.69
2023-04-13T04:56:29.441Z,157660.03
2023-04-13T04:58:57.128Z,157679.97
2023-04-13T05:01:35.017Z,157698.53
2023-04-13T05:04:11.043Z,157726.44
2023-04-13T05:06:42.195Z,157768.94
2023-04-13T05:09:15.138Z,157779.59
2023-04-13T05:11:48.349Z,157791.53
2023-04-13T05:14:18.135Z,157800.88
2023-04-13T05:16:46.013Z,157818.13
2023-04-13T05:19:35.471Z,157807.53
2023-04-13T05:22:22.820Z,157838.06
2023-04-13T05:24:57.558Z,157876.63
2023-04-13T05:27:25.296Z,157919.19
2023-04-13T05:29:56.598Z,157949.75
2023-04-13T05:32:25.816Z,157985.63
2023-04-13T05:34:55.937Z,157994.91
2023-04-13T05:37:27.208Z,158017.56
2023-04-13T05:39:54.993Z,158020.19
2023-04-13T05:42:28.440Z,158046.81
2023-04-13T05:44:56.742Z,158054.78
2023-04-13T05:47:25.952Z,158062.75
2023-04-13T05:49:58.321Z,158123.94
2023-04-13T05:52:25.869Z,158133.25
2023-04-13T05:54:54.248Z,158186.53
2023-04-13T05:57:23.949Z,158283.69
2023-04-13T05:59:55.116Z,158360.88
2023-04-13T06:02:30.469Z,158451.34
2023-04-13T06:04:58.241Z,158556.53
2023-04-13T06:07:26.157Z,158677.81
2023-04-13T06:09:53.985Z,158837.72
2023-04-13T06:12:22.089Z,158936.34
2023-04-13T06:14:49.633Z,159121.75
2023-04-13T06:17:16.970Z,159275.16
2023-04-13T06:19:44.538Z,159357.94
2023-04-13T06:22:11.775Z,159355.28
2023-04-13T06:24:41.433Z,159337.91
2023-04-13T06:27:11.297Z,159349.94
2023-04-13T06:29:40.582Z,159403.34
2023-04-13T06:32:10.828Z,159523.50
2023-04-13T06:34:38.567Z,159574.22
2023-04-13T06:37:07.501Z,159665.03
2023-04-13T06:39:44.228Z,159777.31
2023-04-13T06:42:11.998Z,159886.84
2023-04-13T06:45:00.204Z,159980.47
2023-04-13T06:47:32.942Z,160037.94
2023-04-13T06:50:06.726Z,160092.78
2023-04-13T06:52:37.557Z,160234.59
2023-04-13T06:55:05.950Z,160305.47
2023-04-13T06:57:37.996Z,160337.56
2023-04-13T07:00:21.844Z,160237.25
2023-04-13T07:02:58.217Z,160301.44
2023-04-13T07:05:26.122Z,160413.91
2023-04-13T07:07:56.282Z,160494.19
2023-04-13T07:10:24.270Z,160549.06
2023-04-13T07:12:52.713Z,160527.66
2023-04-13T07:15:23.188Z,160475.47
2023-04-13T07:17:50.450Z,160471.44
2023-04-13T07:20:18.263Z,160542.38
2023-04-13T07:22:47.505Z,160546.41
2023-04-13T07:25:14.947Z,160598.59
2023-04-13T07:27:42.152Z,160609.34
2023-04-13T07:30:09.937Z,160555.78
2023-04-13T07:32:42.357Z,160510.28
2023-04-13T07:35:10.759Z,160527.66
2023-04-13T07:37:39.635Z,160557.09
2023-04-13T07:40:09.491Z,160523.63
2023-04-13T07:42:39.317Z,160636.09
2023-04-13T07:45:07.872Z,160646.81
2023-04-13T07:47:35.162Z,160673.59
2023-04-13T07:50:09.569Z,160666.91
2023-04-13T07:52:38.073Z,160678.94
2023-04-13T07:55:07.234Z,160724.53
2023-04-13T07:57:38.644Z,160633.44
2023-04-13T08:00:08.433Z,160612.00
2023-04-13T08:02:44.976Z,160613.34
2023-04-13T08:05:17.859Z,160681.63
2023-04-13T08:07:46.833Z,160708.47
2023-04-13T08:10:16.620Z,160672.22
2023-04-13T08:12:44.574Z,160732.56
2023-04-13T08:15:15.127Z,160693.75
2023-04-13T08:17:42.837Z,160640.13
2023-04-13T08:20:10.937Z,160646.81
2023-04-13T08:22:38.557Z,160630.75
2023-04-13T08:25:06.772Z,160707.09
2023-04-13T08:27:34.602Z,160636.09
2023-04-13T08:30:04.462Z,160555.78
2023-04-13T08:32:42.981Z,160520.97
2023-04-13T08:35:11.976Z,160621.34
2023-04-13T08:37:39.739Z,160617.38
2023-04-13T08:40:12.914Z,160662.88
2023-04-13T08:42:42.999Z,160654.84
2023-04-13T08:45:12.266Z,160617.38
2023-04-13T08:47:44.334Z,160612.00
2023-04-13T08:50:12.547Z,160586.53
2023-04-13T08:52:47.894Z,160558.44
2023-04-13T08:55:18.136Z,160610.69
2023-04-13T08:57:51.234Z,160589.25
2023-04-13T09:00:19.928Z,160624.06
2023-04-13T09:03:03.019Z,160650.81
2023-04-13T09:05:34.308Z,160656.19
2023-04-13T09:08:08.046Z,160624.06
2023-04-13T09:10:38.360Z,160664.19
2023-04-13T09:13:05.955Z,160711.13
2023-04-13T09:15:34.385Z,160723.22
2023-04-13T09:18:20.529Z,160744.63
2023-04-13T09:20:57.868Z,160708.47
2023-04-13T09:23:25.529Z,160762.03
2023-04-13T09:26:06.954Z,160772.75
2023-04-13T09:28:34.353Z,160743.31
2023-04-13T09:31:03.726Z,160681.63
2023-04-13T09:33:36.250Z,160638.78
2023-04-13T09:36:11.657Z,160550.41
2023-04-13T09:38:38.982Z,160579.84
2023-04-13T09:41:07.517Z,160641.44
2023-04-13T09:43:36.756Z,160721.81
2023-04-13T09:46:05.814Z,160800.91
2023-04-13T09:48:33.390Z,160845.09
2023-04-13T09:51:06.930Z,160871.91
2023-04-13T09:53:46.548Z,160843.75
2023-04-13T09:56:14.381Z,160772.75
2023-04-13T09:58:44.380Z,160758.03
2023-04-13T10:01:12.751Z,160687.06
2023-04-13T10:03:40.166Z,160636.09
2023-04-13T10:06:08.518Z,160622.69
2023-04-13T10:08:40.335Z,160636.09
2023-04-13T10:11:15.164Z,160654.84
2023-04-13T10:13:52.824Z,160674.94
2023-04-13T10:16:59.825Z,160692.38
2023-04-13T10:19:31.234Z,160744.63
2023-04-13T10:21:59.288Z,160749.97
2023-04-13T10:24:30.533Z,160748.63
2023-04-13T10:27:01.947Z,160768.72
2023-04-13T10:29:30.040Z,160778.09
2023-04-13T10:32:03.588Z,160799.50
2023-04-13T10:34:34.470Z,160770.06
2023-04-13T10:37:06.868Z,160784.78
2023-04-13T10:39:36.155Z,160831.69
2023-04-13T10:42:08.597Z,160802.22
2023-04-13T10:44:48.817Z,160819.63
2023-04-13T10:47:18.460Z,160794.19
2023-04-13T10:49:46.855Z,160775.41
2023-04-13T10:52:15.654Z,160792.88
2023-04-13T10:54:44.034Z,160771.38
2023-04-13T10:57:12.429Z,160760.69
2023-04-13T10:59:58.889Z,160699.06
2023-04-13T11:02:32.368Z,160707.09
2023-04-13T11:05:01.424Z,160717.84
2023-04-13T11:07:29.889Z,160716.50
2023-04-13T11:12:29.517Z,160815.63
2023-04-13T11:14:56.861Z,160803.56
2023-04-13T11:17:24.687Z,160824.97
2023-04-13T11:19:53.522Z,160823.66
2023-04-13T11:22:29.122Z,160819.63
2023-04-13T11:25:07.205Z,160762.03
2023-04-13T11:27:35.212Z,160749.97
2023-04-13T11:30:07.397Z,160736.59
2023-04-13T11:32:36.582Z,160716.50
2023-04-13T11:35:17.350Z,160728.53
2023-04-13T11:37:48.890Z,160721.81
2023-04-13T11:40:17.872Z,160754.00
2023-04-13T11:42:49.685Z,160776.75
2023-04-13T11:45:19.058Z,160760.69
2023-04-13T11:47:49.890Z,160799.50
2023-04-13T11:50:17.873Z,160794.19
2023-04-13T11:52:46.841Z,160782.13
2023-04-13T11:55:23.102Z,160824.97
2023-04-13T11:57:53.507Z,160867.84
2023-04-13T12:00:26.514Z,160894.66
2023-04-13T12:05:32.338Z,160921.47
2023-04-13T12:08:03.109Z,160933.47
2023-04-13T12:10:41.386Z,160949.59
2023-04-13T12:13:18.467Z,160954.91
2023-04-13T12:16:06.036Z,160963.00
2023-04-13T12:18:47.007Z,160991.19
2023-04-13T12:21:20.472Z,161011.25
2023-04-13T12:23:53.630Z,160995.19
2023-04-13T12:28:56.894Z,160977.78
2023-04-13T12:31:24.590Z,160995.19
2023-04-13T12:33:52.214Z,160991.19
2023-04-13T12:36:19.594Z,160989.81
2023-04-13T12:38:47.120Z,160993.88
2023-04-13T12:41:14.237Z,161012.63
2023-04-13T12:43:41.654Z,161013.97
2023-04-13T12:46:08.958Z,160983.13
2023-04-13T12:48:36.736Z,160933.47
2023-04-13T12:51:04.217Z,160950.94
2023-04-13T12:53:31.858Z,160988.50
2023-04-13T12:55:59.155Z,161040.78
2023-04-13T12:58:26.731Z,161015.31
2023-04-13T13:00:54.082Z,160979.13
2023-04-13T13:03:23.802Z,161013.97
2023-04-13T13:05:51.428Z,160989.81
2023-04-13T13:08:19.036Z,160995.19
2023-04-13T13:10:46.356Z,160991.19
2023-04-13T13:13:17.175Z,160967.00
2023-04-13T13:15:44.443Z,160995.19
2023-04-13T13:18:13.039Z,161016.63
2023-04-13T13:20:41.718Z,161039.41
2023-04-13T13:23:11.110Z,161028.72
2023-04-13T13:25:42.425Z,161059.50
2023-04-13T13:28:15.385Z,161097.09
2023-04-13T13:30:43.544Z,161115.81
2023-04-13T13:33:11.480Z,161130.56
2023-04-13T13:35:38.824Z,161181.50
2023-04-13T13:38:06.914Z,161149.34
2023-04-13T13:40:34.263Z,161079.63
2023-04-13T13:43:01.916Z,161046.09
2023-04-13T13:45:29.198Z,161039.41
2023-04-13T13:47:58.540Z,161064.88
2023-04-13T13:50:39.569Z,161059.50
2023-04-13T13:53:08.764Z,161071.59
2023-04-13T13:55:41.029Z,161008.59
2023-04-13T13:58:08.770Z,160969.75
2023-04-13T14:00:36.292Z,160988.50
2023-04-13T14:03:04.215Z,160979.13
2023-04-13T14:05:32.389Z,161009.94
2023-04-13T14:08:00.121Z,161020.69
2023-04-13T14:10:27.863Z,160968.34
2023-04-13T14:12:55.922Z,160918.75
2023-04-13T14:15:23.277Z,160942.91
2023-04-13T14:18:02.513Z,160964.34
2023-04-13T14:20:39.462Z,161032.69
2023-04-13T14:23:09.695Z,161035.41
2023-04-13T14:25:38.720Z,161024.66
2023-04-13T14:28:07.067Z,161007.28
2023-04-13T14:30:34.829Z,161035.41
2023-04-13T14:33:04.199Z,161003.22
2023-04-13T14:35:31.768Z,160980.47
2023-04-13T14:37:59.804Z,160975.09
2023-04-13T14:40:28.341Z,160995.19
2023-04-13T14:42:56.003Z,160963.00
2023-04-13T14:45:23.844Z,160997.91
2023-04-13T14:47:53.861Z,160961.63
2023-04-13T14:50:21.700Z,160944.22
2023-04-13T14:52:50.394Z,160933.47
2023-04-13T14:55:18.013Z,160898.66
2023-04-13T14:57:46.222Z,160909.38
2023-04-13T15:00:26.683Z,160916.09
2023-04-13T15:02:55.303Z,160914.75
2023-04-13T15:05:23.333Z,160914.75
2023-04-13T15:07:51.319Z,160850.44
2023-04-13T15:10:19.380Z,160853.13
2023-04-13T15:12:48.283Z,160871.91
2023-04-13T15:15:16.075Z,160839.72
2023-04-13T15:17:43.930Z,160853.13
2023-04-13T15:20:12.282Z,160851.78
2023-04-13T15:22:39.817Z,160850.44
2023-04-13T15:25:07.511Z,160838.38
2023-04-13T15:27:35.043Z,160823.66
2023-04-13T15:30:03.845Z,160808.94
2023-04-13T15:32:34.269Z,160799.50
2023-04-13T15:35:02.297Z,160820.94
2023-04-13T15:37:30.100Z,160796.84
2023-04-13T15:39:57.559Z,160791.47
2023-04-13T15:42:26.427Z,160819.63
2023-04-13T15:44:55.397Z,160787.50
2023-04-13T15:47:23.218Z,160766.06
2023-04-13T15:49:50.493Z,160804.88
2023-04-13T15:52:18.238Z,160787.50
2023-04-13T15:54:46.167Z,160724.53
2023-04-13T15:57:14.826Z,160697.75
2023-04-13T15:59:42.210Z,160723.22
2023-04-13T16:02:10.592Z,160693.75
2023-04-13T16:04:38.544Z,160684.28
2023-04-13T16:07:13.595Z,160660.22
2023-04-13T16:09:43.999Z,160652.19
2023-04-13T16:12:12.061Z,160599.94
2023-04-13T16:14:42.380Z,160585.22
2023-04-13T16:17:10.628Z,160567.84
2023-04-13T16:19:38.511Z,160534.34
2023-04-13T16:22:06.454Z,160514.28
2023-04-13T16:24:33.800Z,160507.56
2023-04-13T16:27:02.824Z,160488.88
2023-04-13T16:29:30.440Z,160460.75
2023-04-13T16:31:58.136Z,160451.34
2023-04-13T16:34:27.860Z,160437.97
2023-04-13T16:36:56.381Z,160427.28
2023-04-13T16:39:23.926Z,160405.88
2023-04-13T16:41:51.817Z,160383.13
2023-04-13T16:44:19.287Z,160377.72
2023-04-13T16:46:47.068Z,160350.94
2023-04-13T16:49:14.398Z,160357.66
2023-04-13T16:51:41.958Z,160309.47
2023-04-13T16:54:14.092Z,160289.41
2023-04-13T16:56:41.664Z,160247.91
2023-04-13T16:59:09.016Z,160233.22
2023-04-13T17:01:39.174Z,160215.84
2023-04-13T17:04:07.207Z,160209.16
2023-04-13T17:06:36.716Z,160186.41
2023-04-13T17:09:07.081Z,160173.03
2023-04-13T17:11:34.918Z,160144.97
2023-04-13T17:14:02.413Z,160122.22
2023-04-13T17:16:30.192Z,160099.47
2023-04-13T17:18:58.716Z,160090.13
2023-04-13T17:21:27.551Z,160076.75
2023-04-13T17:23:54.876Z,160048.63
2023-04-13T17:26:22.716Z,160020.53
2023-04-13T17:28:49.961Z,159999.16
2023-04-13T17:31:17.685Z,159995.16
2023-04-13T17:33:45.708Z,159975.09
2023-04-13T17:36:13.350Z,159949.69
2023-04-13T17:38:40.443Z,159926.97
2023-04-13T17:41:11.195Z,159909.56
2023-04-13T17:43:39.388Z,159904.25
2023-04-13T17:46:08.530Z,159894.88
2023-04-13T17:48:35.876Z,159854.81
2023-04-13T17:51:03.557Z,159852.13
2023-04-13T17:53:31.457Z,159845.44
2023-04-13T17:55:59.037Z,159833.44
2023-04-13T17:58:26.436Z,159821.41
2023-04-13T18:00:54.092Z,159785.31
2023-04-13T18:03:21.427Z,159746.56
2023-04-13T18:05:49.062Z,159723.84
2023-04-13T18:08:16.312Z,159710.47
2023-04-13T18:10:43.877Z,159691.81
2023-04-13T18:13:11.217Z,159682.38
2023-04-13T18:15:38.774Z,159666.38
2023-04-13T18:18:06.127Z,159665.03
2023-04-13T18:20:33.818Z,159665.03
2023-04-13T18:23:00.970Z,159643.66
2023-04-13T18:25:28.714Z,159632.97
2023-04-13T18:27:56.122Z,159622.31
2023-04-13T18:30:23.686Z,159627.66
2023-04-13T18:32:51.732Z,159611.59
2023-04-13T18:35:19.553Z,159611.59
2023-04-13T18:37:46.824Z,159592.94
2023-04-13T18:40:14.344Z,159579.56
2023-04-13T18:42:42.078Z,159566.22
2023-04-13T18:45:10.306Z,159556.81
2023-04-13T18:47:37.875Z,159532.81
2023-04-13T18:50:06.436Z,159504.78
2023-04-13T18:52:33.934Z,159502.13
2023-04-13T18:55:01.562Z,159491.41
2023-04-13T18:57:29.020Z,159463.38
2023-04-13T18:59:57.589Z,159440.69
2023-04-13T19:02:25.103Z,159451.34
2023-04-13T19:04:53.514Z,159440.69
2023-04-13T19:07:21.059Z,159423.38
2023-04-13T19:09:48.586Z,159385.97
2023-04-13T19:12:16.052Z,159373.97
2023-04-13T19:14:44.154Z,159376.63
2023-04-13T19:17:13.642Z,159349.94
2023-04-13T19:19:41.251Z,159363.28
2023-04-13T19:22:08.654Z,159357.94
2023-04-13T19:24:36.507Z,159348.59
2023-04-13T19:27:03.832Z,159340.59
2023-04-13T19:29:33.612Z,159305.91
2023-04-13T19:32:01.076Z,159299.22
2023-04-13T19:34:28.770Z,159275.16
2023-04-13T19:36:56.200Z,159269.81
2023-04-13T19:39:23.918Z,159281.84
2023-04-13T19:41:51.379Z,159269.81
2023-04-13T19:44:19.306Z,159245.78
2023-04-13T19:46:47.128Z,159241.81
2023-04-13T19:49:15.330Z,159247.16
2023-04-13T19:51:42.790Z,159235.13
2023-04-13T19:54:10.642Z,159235.13
2023-04-13T19:56:38.316Z,159227.13
2023-04-13T19:59:06.909Z,159225.75
2023-04-13T20:01:34.654Z,159205.78
2023-04-13T20:04:07.007Z,159185.75
2023-04-13T20:06:34.948Z,159192.44
2023-04-13T20:09:12.613Z,159149.75
2023-04-13T20:11:44.064Z,159161.72
2023-04-13T20:14:12.660Z,159152.41
2023-04-13T20:16:40.662Z,159151.06
2023-04-13T20:19:09.688Z,159137.72
2023-04-13T20:21:38.198Z,159133.72
2023-04-13T20:24:06.191Z,159133.72
2023-04-13T20:26:33.728Z,159121.75
2023-04-13T20:29:04.228Z,159123.06
2023-04-13T20:31:33.319Z,159132.38
2023-04-13T20:34:03.304Z,159139.06
2023-04-13T20:36:31.522Z,159132.38
2023-04-13T20:38:59.650Z,159113.75
2023-04-13T20:41:30.101Z,159101.72
2023-04-13T20:43:59.078Z,159088.38
2023-04-13T20:46:34.676Z,159076.38
2023-04-13T20:49:05.403Z,159057.72
2023-04-13T20:51:33.817Z,159051.06
2023-04-13T20:54:03.107Z,159029.72
2023-04-13T20:56:31.109Z,159020.34
2023-04-13T20:58:58.925Z,158997.69
2023-04-13T21:01:26.534Z,158964.34
2023-04-13T21:03:54.202Z,158947.03
2023-04-13T21:06:22.954Z,158941.69
2023-04-13T21:08:52.919Z,158924.38
2023-04-13T21:11:20.190Z,158908.34
2023-04-13T21:13:47.741Z,158892.38
2023-04-13T21:16:15.084Z,158873.69
2023-04-13T21:18:42.969Z,158869.72
2023-04-13T21:21:10.315Z,158856.41
2023-04-13T21:23:38.069Z,158821.72
2023-04-13T21:26:07.593Z,158817.75
2023-04-13T21:28:35.365Z,158784.44
2023-04-13T21:31:02.953Z,158775.03
2023-04-13T21:33:31.139Z,158757.72
2023-04-13T21:36:51.298Z,158760.38
2023-04-13T21:38:46.480Z,158757.72
2023-04-13T21:41:18.238Z,158747.03
2023-04-13T21:43:46.386Z,158741.75
2023-04-13T21:46:15.479Z,158724.41
2023-04-13T21:48:43.967Z,158703.06
2023-04-13T21:51:11.408Z,158720.44
2023-04-13T21:53:39.303Z,158700.44
2023-04-13T21:56:06.793Z,158695.09
2023-04-13T21:58:42.866Z,158687.09
2023-04-13T22:01:11.059Z,158681.75
2023-04-13T22:03:40.205Z,158691.13
2023-04-13T22:06:09.844Z,158679.13
2023-04-13T22:08:37.984Z,158687.09
2023-04-13T22:11:05.691Z,158685.78
2023-04-13T22:13:33.278Z,158709.75
2023-04-13T22:16:00.833Z,158731.06
2023-04-13T22:18:28.452Z,158739.03
2023-04-13T22:20:55.877Z,158736.41
2023-04-13T22:23:23.668Z,158717.72
2023-04-13T22:25:58.995Z,158717.72
2023-04-13T22:28:26.505Z,158719.06
2023-04-13T22:30:54.001Z,158696.41
2023-04-13T22:33:21.785Z,158697.75
2023-04-13T22:35:51.031Z,158700.44
2023-04-13T22:38:19.130Z,158691.13
2023-04-13T22:40:46.558Z,158681.75
2023-04-13T22:43:14.273Z,158700.44
2023-04-13T22:45:41.722Z,158715.09
2023-04-13T22:48:09.204Z,158693.78
2023-04-13T22:50:38.098Z,158720.44
2023-04-13T22:53:05.832Z,158733.75
2023-04-13T22:55:33.272Z,158743.06
2023-04-13T22:58:00.928Z,158744.38
2023-04-13T23:00:28.615Z,158740.41
2023-04-13T23:02:56.915Z,158733.75
2023-04-13T23:05:24.572Z,158708.41
2023-04-13T23:07:52.371Z,158688.44
2023-04-13T23:10:19.930Z,158675.09
2023-04-13T23:12:47.418Z,158672.47
2023-04-13T23:15:14.783Z,158645.81
2023-04-13T23:17:42.257Z,158620.47
2023-04-13T23:20:10.880Z,158628.50
2023-04-13T23:22:38.560Z,158611.16
2023-04-13T23:25:06.642Z,158599.16
2023-04-13T23:27:34.243Z,158592.50
2023-04-13T23:30:01.776Z,158576.53
2023-04-13T23:32:29.423Z,158552.59
2023-04-13T23:34:56.656Z,158541.91
2023-04-13T23:37:24.378Z,158531.28
2023-04-13T23:39:51.503Z,158503.31
2023-04-13T23:42:19.154Z,158490.00
2023-04-13T23:44:46.514Z,158531.28
2023-04-13T23:47:14.131Z,158519.28
2023-04-13T23:49:42.263Z,158507.28
2023-04-13T23:52:10.111Z,158508.66
2023-04-13T23:54:37.442Z,158517.94
2023-04-13T23:57:05.045Z,158512.63
2023-04-13T23:59:32.593Z,158484.66
